Time;durP1;ratioP1;P1;durP2;ratioP2;P2;SDS_P1;SDS_P2;PMS_P1;PMS_P2;Temp;Humidity;BMP_temperature;BMP_pressure;BME280_temperature;BME280_humidity;BME280_pressure;Samples;Min_cycle;Max_cycle;Signal;HPM_P1;HPM_P2
2022/01/16 00:04:09;;;;;;;;;;;3.90;98.20;;;;;;5054951;28;19909;-68
2022/01/16 00:06:45;;;;;;;;;;;3.90;98.20;;;;;;5049519;28;19913;-69
2022/01/16 00:09:11;;;;;;;;;;;3.90;98.20;;;;;;5052582;28;19920;-69
2022/01/16 00:11:37;;;;;;;;;;;3.90;98.30;;;;;;5047517;28;20356;-69
2022/01/16 00:14:04;;;;;;;;;;;3.90;98.20;;;;;;5054636;28;19917;-69
2022/01/16 00:16:29;;;;;;;;;;;3.90;98.20;;;;;;5048867;28;20783;-69
2022/01/16 00:18:55;;;;;;;;;;;3.90;98.20;;;;;;5048990;28;19913;-69
2022/01/16 00:21:22;;;;;;;;;;;3.90;98.20;;;;;;5032000;28;20394;-69
2022/01/16 00:23:48;;;;;;;;;;;3.90;98.30;;;;;;5051324;28;19913;-69
2022/01/16 00:26:13;;;;;;;;;;;3.90;98.20;;;;;;5050106;28;20400;-69
2022/01/16 00:28:39;;;;;;;;;;;3.90;98.20;;;;;;5050680;28;19909;-69
2022/01/16 00:31:04;;;;;;;;;;;3.90;98.20;;;;;;5049555;28;19920;-69
2022/01/16 00:33:30;;;;;;;;;;;3.90;98.20;;;;;;5048792;28;19909;-69
2022/01/16 00:35:56;;;;;;;;;;;3.90;98.20;;;;;;5052019;28;19913;-69
2022/01/16 00:38:21;;;;;;;;;;;3.90;98.30;;;;;;5051227;28;20384;-69
2022/01/16 00:40:47;;;;;;;;;;;3.90;98.30;;;;;;5052360;28;19917;-69
2022/01/16 00:43:13;;;;;;;;;;;3.90;98.20;;;;;;5050557;28;19921;-69
2022/01/16 00:45:39;;;;;;;;;;;3.90;98.30;;;;;;5051736;28;19962;-69
2022/01/16 00:48:05;;;;;;;;;;;3.90;98.30;;;;;;5046291;28;20373;-69
2022/01/16 00:50:31;;;;;;;;;;;3.90;98.20;;;;;;5049667;28;19913;-69
2022/01/16 00:52:57;;;;;;;;;;;3.90;98.30;;;;;;5047642;28;19946;-69
2022/01/16 00:55:22;;;;;;;;;;;3.90;98.20;;;;;;5051552;28;19952;-69
2022/01/16 00:57:48;;;;;;;;;;;3.90;98.20;;;;;;5047630;28;19913;-69
2022/01/16 01:00:13;;;;;;;;;;;3.90;98.20;;;;;;5050658;28;19909;-69
2022/01/16 01:02:39;;;;;;;;;;;3.90;98.30;;;;;;5048318;28;19917;-69
2022/01/16 01:05:05;;;;;;;;;;;3.90;98.30;;;;;;5051657;28;20554;-69
2022/01/16 01:07:31;;;;;;;;;;;3.90;98.20;;;;;;5047166;28;19958;-69
2022/01/16 01:09:56;;;;;;;;;;;3.90;98.30;;;;;;5050571;28;20630;-69
2022/01/16 01:12:51;;;;;;;;;;;3.90;98.30;;;;;;5046736;28;20595;-69
2022/01/16 01:15:14;;;;;;;;;;;3.90;98.20;;;;;;5050872;28;19909;-69
2022/01/16 01:17:45;;;;;;;;;;;3.80;98.20;;;;;;5049975;28;20244;-69
2022/01/16 01:20:14;;;;;;;;;;;3.90;98.30;;;;;;5050170;28;19912;-69
2022/01/16 01:22:40;;;;;;;;;;;3.90;98.30;;;;;;5048122;28;20003;-69
2022/01/16 01:25:05;;;;;;;;;;;3.90;98.20;;;;;;5049195;28;19996;-69
2022/01/16 01:27:33;;;;;;;;;;;3.90;98.20;;;;;;5048430;28;19916;-69
2022/01/16 01:30:04;;;;;;;;;;;3.90;98.20;;;;;;5049830;28;19928;-69
2022/01/16 01:32:31;;;;;;;;;;;3.90;98.20;;;;;;5064474;28;20320;-69
2022/01/16 01:34:57;;;;;;;;;;;3.90;98.20;;;;;;5047978;28;19971;-69
2022/01/16 01:37:22;;;;;;;;;;;3.90;98.20;;;;;;5048905;28;19952;-69
2022/01/16 01:39:48;;;;;;;;;;;3.80;98.20;;;;;;5045773;28;19963;-69
2022/01/16 01:42:14;;;;;;;;;;;3.80;98.20;;;;;;5049083;28;20012;-69
2022/01/16 01:52:57;;;;;;;;;;;3.80;98.20;;;;;;5053327;28;19919;-69
2022/01/16 01:55:24;;;;;;;;;;;3.80;98.30;;;;;;5028894;28;19916;-69
2022/01/16 01:57:50;;;;;;;;;;;3.80;98.20;;;;;;5048430;28;19909;-69
2022/01/16 02:00:18;;;;;;;;;;;3.80;98.20;;;;;;5046563;28;19920;-69
2022/01/16 02:05:33;;;;;;;;;;;3.80;98.20;;;;;;5003430;28;19917;-69
2022/01/16 02:07:58;;;;;;;;;;;3.80;98.20;;;;;;5048386;28;19969;-68
2022/01/16 02:10:24;;;;;;;;;;;3.80;98.20;;;;;;5050027;28;19913;-69
2022/01/16 02:12:57;;;;;;;;;;;3.80;98.20;;;;;;5049450;28;19909;-69
2022/01/16 02:29:41;;;;;;;;;;;3.80;98.20;;;;;;5049396;28;20392;-69
2022/01/16 02:32:29;;;;;;;;;;;3.80;98.30;;;;;;5044296;28;20249;-69
2022/01/16 02:34:48;;;;;;;;;;;3.80;98.30;;;;;;5049028;28;19916;-68
2022/01/16 02:37:14;;;;;;;;;;;3.80;98.20;;;;;;5044008;28;19913;-69
2022/01/16 02:39:42;;;;;;;;;;;3.80;98.20;;;;;;5049349;28;19909;-69
2022/01/16 02:42:08;;;;;;;;;;;3.80;98.20;;;;;;5046733;28;19920;-69
2022/01/16 02:44:43;;;;;;;;;;;3.70;98.20;;;;;;5049026;28;20003;-69
2022/01/16 02:47:13;;;;;;;;;;;3.70;98.20;;;;;;5044314;28;20334;-71
2022/01/16 02:49:44;;;;;;;;;;;3.70;98.20;;;;;;5049525;28;19952;-71
2022/01/16 02:52:12;;;;;;;;;;;3.70;98.20;;;;;;5061224;28;19999;-71
2022/01/16 02:54:39;;;;;;;;;;;3.70;98.20;;;;;;5047092;28;20420;-71
2022/01/16 02:57:06;;;;;;;;;;;3.70;98.20;;;;;;5046755;28;19913;-71
2022/01/16 02:59:33;;;;;;;;;;;3.70;98.20;;;;;;5047591;28;19909;-71
2022/01/16 03:02:00;;;;;;;;;;;3.70;98.20;;;;;;5046581;28;19964;-71
2022/01/16 03:04:26;;;;;;;;;;;3.70;98.20;;;;;;5047521;28;19917;-71
2022/01/16 03:06:52;;;;;;;;;;;3.70;98.20;;;;;;5049633;28;19913;-71
2022/01/16 03:09:19;;;;;;;;;;;3.70;98.20;;;;;;5049576;28;19917;-71
2022/01/16 03:11:47;;;;;;;;;;;3.70;98.20;;;;;;5047829;28;21228;-71
2022/01/16 03:14:14;;;;;;;;;;;3.70;98.20;;;;;;5031398;28;20267;-71
2022/01/16 03:16:43;;;;;;;;;;;3.70;98.20;;;;;;5045643;28;19912;-71
2022/01/16 03:21:54;;;;;;;;;;;3.70;98.20;;;;;;5046975;28;19935;-71
2022/01/16 03:24:21;;;;;;;;;;;3.70;98.20;;;;;;5045571;28;20345;-71
2022/01/16 03:26:46;;;;;;;;;;;3.70;98.20;;;;;;5034732;28;19913;-71
2022/01/16 03:29:12;;;;;;;;;;;3.70;98.20;;;;;;5048856;28;20003;-71
2022/01/16 03:31:37;;;;;;;;;;;3.70;98.20;;;;;;5055178;28;19913;-71
2022/01/16 03:34:03;;;;;;;;;;;3.70;98.20;;;;;;5047782;28;19916;-71
2022/01/16 03:36:29;;;;;;;;;;;3.70;98.20;;;;;;5050615;28;19917;-71
2022/01/16 03:38:54;;;;;;;;;;;3.70;98.20;;;;;;5050242;28;20315;-71
2022/01/16 03:41:20;;;;;;;;;;;3.70;98.20;;;;;;5051917;28;20420;-71
2022/01/16 03:43:45;;;;;;;;;;;3.70;98.20;;;;;;5064859;28;19940;-71
2022/01/16 03:46:11;;;;;;;;;;;3.70;98.20;;;;;;5051416;28;19925;-71
2022/01/16 03:48:36;;;;;;;;;;;3.70;98.20;;;;;;5049764;28;19920;-71
2022/01/16 03:51:02;;;;;;;;;;;3.70;98.20;;;;;;5051845;28;19916;-71
2022/01/16 03:53:27;;;;;;;;;;;3.70;98.20;;;;;;5051667;28;19924;-71
2022/01/16 03:55:53;;;;;;;;;;;3.70;98.50;;;;;;5050195;28;19917;-71
2022/01/16 03:58:20;;;;;;;;;;;3.70;98.20;;;;;;5048561;28;21261;-71
2022/01/16 04:00:46;;;;;;;;;;;3.70;98.20;;;;;;5050552;28;19948;-71
2022/01/16 04:03:11;;;;;;;;;;;3.70;98.20;;;;;;5051942;28;19913;-71
2022/01/16 04:05:37;;;;;;;;;;;3.70;98.20;;;;;;5054139;28;19974;-71
2022/01/16 04:08:03;;;;;;;;;;;3.70;98.20;;;;;;5051153;28;19976;-71
2022/01/16 04:10:29;;;;;;;;;;;3.60;98.20;;;;;;5050620;28;20385;-71
2022/01/16 04:12:54;;;;;;;;;;;3.60;98.20;;;;;;5051628;28;19916;-71
2022/01/16 04:17:45;;;;;;;;;;;3.60;98.20;;;;;;5052480;28;19959;-71
2022/01/16 04:20:15;;;;;;;;;;;3.60;98.20;;;;;;5047729;28;19913;-71
2022/01/16 04:22:45;;;;;;;;;;;3.60;98.20;;;;;;5049515;28;20582;-71
2022/01/16 04:25:11;;;;;;;;;;;3.60;98.20;;;;;;5050471;28;19920;-71
2022/01/16 04:27:37;;;;;;;;;;;3.60;98.20;;;;;;5047797;28;19923;-71
2022/01/16 04:30:03;;;;;;;;;;;3.60;98.20;;;;;;5048856;28;20449;-71
2022/01/16 04:32:28;;;;;;;;;;;3.60;98.20;;;;;;5050423;28;19913;-71
2022/01/16 04:34:54;;;;;;;;;;;3.60;98.20;;;;;;5048327;28;19919;-71
2022/01/16 04:37:19;;;;;;;;;;;3.60;98.20;;;;;;5050691;28;19920;-71
2022/01/16 04:39:51;;;;;;;;;;;3.60;98.20;;;;;;5048826;28;19965;-71
2022/01/16 04:45:02;;;;;;;;;;;3.60;98.20;;;;;;5048361;28;20061;-71
2022/01/16 04:47:28;;;;;;;;;;;3.60;98.20;;;;;;5048736;28;19928;-71
2022/01/16 04:49:54;;;;;;;;;;;3.60;98.20;;;;;;5050929;28;19920;-71
2022/01/16 04:52:19;;;;;;;;;;;3.60;98.20;;;;;;5047030;28;19913;-71
2022/01/16 04:54:45;;;;;;;;;;;3.60;98.20;;;;;;5049663;28;19917;-71
2022/01/16 04:57:13;;;;;;;;;;;3.60;98.20;;;;;;5063607;28;19995;-71
2022/01/16 04:59:39;;;;;;;;;;;3.60;98.20;;;;;;5032807;28;20301;-71
2022/01/16 05:02:04;;;;;;;;;;;3.60;98.10;;;;;;5054892;28;19923;-71
2022/01/16 05:04:30;;;;;;;;;;;3.60;98.20;;;;;;5049230;28;20027;-71
2022/01/16 05:06:55;;;;;;;;;;;3.60;98.20;;;;;;5047494;28;19919;-71
2022/01/16 05:09:21;;;;;;;;;;;3.60;98.20;;;;;;5048662;28;19913;-71
2022/01/16 05:11:53;;;;;;;;;;;3.60;98.20;;;;;;5046141;28;20352;-71
2022/01/16 05:17:03;;;;;;;;;;;3.60;98.20;;;;;;5048948;28;20472;-71
2022/01/16 05:19:28;;;;;;;;;;;3.60;98.20;;;;;;5051484;28;19999;-71
2022/01/16 05:21:54;;;;;;;;;;;3.60;98.20;;;;;;5047993;28;20288;-71
2022/01/16 05:24:19;;;;;;;;;;;3.60;98.20;;;;;;5053874;28;19948;-71
2022/01/16 05:26:45;;;;;;;;;;;3.60;98.20;;;;;;5031785;28;19909;-71
2022/01/16 05:29:11;;;;;;;;;;;3.60;98.20;;;;;;5050385;28;19917;-71
2022/01/16 05:31:37;;;;;;;;;;;3.60;98.20;;;;;;5031731;28;19917;-71
2022/01/16 05:34:02;;;;;;;;;;;3.60;98.20;;;;;;5046930;28;19923;-71
2022/01/16 05:36:28;;;;;;;;;;;3.60;98.20;;;;;;5049781;28;20258;-71
2022/01/16 05:38:54;;;;;;;;;;;3.60;98.10;;;;;;5048055;28;19940;-71
2022/01/16 05:41:20;;;;;;;;;;;3.60;98.20;;;;;;5049020;28;19928;-71
2022/01/16 05:43:46;;;;;;;;;;;3.60;98.20;;;;;;5031828;28;19908;-71
2022/01/16 05:46:13;;;;;;;;;;;3.60;98.20;;;;;;5048857;28;20003;-71
2022/01/16 05:48:38;;;;;;;;;;;3.60;98.10;;;;;;5047375;28;19994;-71
2022/01/16 05:51:04;;;;;;;;;;;3.60;98.20;;;;;;5034250;28;20034;-71
2022/01/16 05:53:29;;;;;;;;;;;3.60;98.10;;;;;;5046992;28;20005;-71
2022/01/16 05:55:55;;;;;;;;;;;3.60;98.20;;;;;;5049250;28;19974;-71
2022/01/16 05:58:20;;;;;;;;;;;3.60;98.10;;;;;;5047113;28;19920;-71
2022/01/16 06:00:47;;;;;;;;;;;3.60;98.20;;;;;;5049902;28;19920;-71
2022/01/16 06:03:13;;;;;;;;;;;3.60;98.20;;;;;;5045382;28;19927;-71
2022/01/16 06:05:38;;;;;;;;;;;3.60;98.10;;;;;;5050563;28;20896;-71
2022/01/16 06:08:10;;;;;;;;;;;3.60;98.10;;;;;;5047612;28;19919;-71
2022/01/16 06:10:36;;;;;;;;;;;3.60;98.10;;;;;;5049063;28;19939;-71
2022/01/16 06:13:02;;;;;;;;;;;3.60;98.20;;;;;;5051322;28;20523;-71
2022/01/16 06:15:27;;;;;;;;;;;3.60;98.20;;;;;;5034018;28;19917;-71
2022/01/16 06:17:53;;;;;;;;;;;3.60;98.20;;;;;;5047859;28;20414;-71
2022/01/16 06:20:18;;;;;;;;;;;3.60;98.20;;;;;;5047060;28;19935;-71
2022/01/16 06:22:44;;;;;;;;;;;3.60;98.40;;;;;;5048323;28;19920;-71
2022/01/16 06:25:10;;;;;;;;;;;3.60;98.20;;;;;;5047547;28;19913;-71
2022/01/16 06:27:35;;;;;;;;;;;3.60;98.20;;;;;;5048147;28;19913;-71
2022/01/16 06:30:02;;;;;;;;;;;3.60;98.20;;;;;;5046497;28;19981;-71
2022/01/16 06:32:28;;;;;;;;;;;3.60;98.10;;;;;;5049586;28;20029;-71
2022/01/16 06:34:53;;;;;;;;;;;3.60;98.10;;;;;;5045561;28;19963;-71
2022/01/16 06:37:19;;;;;;;;;;;3.60;98.10;;;;;;5035164;28;19913;-71
2022/01/16 06:39:44;;;;;;;;;;;3.60;98.20;;;;;;5046966;28;19935;-71
2022/01/16 06:42:10;;;;;;;;;;;3.60;98.20;;;;;;5047930;28;19917;-71
2022/01/16 06:44:35;;;;;;;;;;;3.60;98.10;;;;;;5047923;28;19924;-71
2022/01/16 06:47:01;;;;;;;;;;;3.70;98.20;;;;;;5047292;28;19917;-71
2022/01/16 06:49:26;;;;;;;;;;;3.70;98.10;;;;;;5063888;28;19928;-71
2022/01/16 06:51:52;;;;;;;;;;;3.60;98.10;;;;;;5045141;28;19909;-71
2022/01/16 06:54:17;;;;;;;;;;;3.60;98.10;;;;;;5048634;28;20389;-71
2022/01/16 06:56:43;;;;;;;;;;;3.70;98.10;;;;;;5048726;28;19966;-71
2022/01/16 06:59:08;;;;;;;;;;;3.60;98.10;;;;;;5052050;28;19923;-71
2022/01/16 07:01:34;;;;;;;;;;;3.60;98.20;;;;;;5049385;28;19921;-71
2022/01/16 07:03:59;;;;;;;;;;;3.60;98.10;;;;;;5052377;28;20353;-71
2022/01/16 07:06:25;;;;;;;;;;;3.70;98.20;;;;;;5050241;28;19920;-71
2022/01/16 07:08:51;;;;;;;;;;;3.60;98.10;;;;;;5053146;28;19947;-71
2022/01/16 07:11:16;;;;;;;;;;;3.70;98.20;;;;;;5050290;28;19975;-71
2022/01/16 07:13:42;;;;;;;;;;;3.70;98.10;;;;;;5052561;28;19970;-71
2022/01/16 07:16:08;;;;;;;;;;;3.70;98.20;;;;;;5049950;28;19925;-71
2022/01/16 07:18:33;;;;;;;;;;;3.70;98.20;;;;;;5052845;28;20362;-71
2022/01/16 07:20:59;;;;;;;;;;;3.70;98.20;;;;;;5052331;28;19908;-71
2022/01/16 07:23:24;;;;;;;;;;;3.70;98.10;;;;;;5053736;28;19920;-71
2022/01/16 07:25:50;;;;;;;;;;;3.70;98.10;;;;;;5048875;28;19950;-71
2022/01/16 07:28:16;;;;;;;;;;;3.70;98.10;;;;;;5046787;28;19917;-71
2022/01/16 07:30:41;;;;;;;;;;;3.60;98.10;;;;;;5049818;28;19975;-71
2022/01/16 07:33:07;;;;;;;;;;;3.60;98.10;;;;;;5054771;28;19916;-71
2022/01/16 07:35:33;;;;;;;;;;;3.60;98.10;;;;;;5051540;28;20389;-71
2022/01/16 07:37:59;;;;;;;;;;;3.70;98.10;;;;;;5049156;28;19912;-71
2022/01/16 07:40:25;;;;;;;;;;;3.70;98.10;;;;;;5053105;28;19913;-71
2022/01/16 07:42:51;;;;;;;;;;;3.70;98.10;;;;;;5049718;28;19924;-71
2022/01/16 07:45:17;;;;;;;;;;;3.70;98.10;;;;;;5050098;28;20058;-71
2022/01/16 07:47:43;;;;;;;;;;;3.70;98.10;;;;;;5047343;28;20578;-71
2022/01/16 07:50:09;;;;;;;;;;;3.70;98.10;;;;;;5051305;28;20003;-71
2022/01/16 07:52:34;;;;;;;;;;;3.70;98.20;;;;;;5049213;28;19924;-71
2022/01/16 07:55:00;;;;;;;;;;;3.70;98.10;;;;;;5067981;28;19913;-71
2022/01/16 07:57:26;;;;;;;;;;;3.70;98.10;;;;;;5047402;28;19920;-71
2022/01/16 07:59:51;;;;;;;;;;;3.70;98.10;;;;;;5053545;28;20270;-71
2022/01/16 08:02:17;;;;;;;;;;;3.70;98.10;;;;;;5033336;28;19970;-71
2022/01/16 08:04:43;;;;;;;;;;;3.70;98.20;;;;;;5049123;28;19994;-71
2022/01/16 08:07:10;;;;;;;;;;;3.70;98.10;;;;;;5051835;28;20350;-71
2022/01/16 08:09:39;;;;;;;;;;;3.70;98.10;;;;;;5031931;28;19921;-71
2022/01/16 08:12:05;;;;;;;;;;;3.70;98.10;;;;;;5048297;28;19920;-71
2022/01/16 08:14:31;;;;;;;;;;;3.70;98.10;;;;;;5048408;28;19934;-71
2022/01/16 08:16:56;;;;;;;;;;;3.70;98.10;;;;;;5046739;28;20361;-71
2022/01/16 08:19:23;;;;;;;;;;;3.70;98.10;;;;;;5048910;28;20255;-71
2022/01/16 08:21:48;;;;;;;;;;;3.70;98.10;;;;;;5050539;28;20369;-71
2022/01/16 08:24:14;;;;;;;;;;;3.70;98.10;;;;;;5047126;28;19948;-71
2022/01/16 08:26:39;;;;;;;;;;;3.70;98.10;;;;;;5050945;28;20031;-71
2022/01/16 08:29:05;;;;;;;;;;;3.70;98.10;;;;;;5048195;28;19913;-71
2022/01/16 08:31:30;;;;;;;;;;;3.70;98.10;;;;;;5052420;28;19920;-71
2022/01/16 08:33:56;;;;;;;;;;;3.70;98.10;;;;;;5047458;28;19917;-71
2022/01/16 08:36:21;;;;;;;;;;;3.70;98.10;;;;;;5051907;28;19908;-71
2022/01/16 08:38:47;;;;;;;;;;;3.70;98.10;;;;;;5048048;28;20582;-71
2022/01/16 08:41:13;;;;;;;;;;;3.70;98.10;;;;;;5047700;28;19912;-71
2022/01/16 08:43:38;;;;;;;;;;;3.70;98.10;;;;;;5048204;28;20608;-71
2022/01/16 08:46:04;;;;;;;;;;;3.70;98.10;;;;;;5048020;28;20003;-71
2022/01/16 08:48:29;;;;;;;;;;;3.70;98.10;;;;;;5048101;28;20042;-71
2022/01/16 08:50:55;;;;;;;;;;;3.80;98.10;;;;;;5047735;28;20358;-71
2022/01/16 08:53:21;;;;;;;;;;;3.80;98.10;;;;;;5045915;28;19913;-71
2022/01/16 08:55:46;;;;;;;;;;;3.70;98.10;;;;;;5048389;28;20019;-71
2022/01/16 08:58:12;;;;;;;;;;;3.80;98.10;;;;;;5046845;28;19919;-71
2022/01/16 09:00:37;;;;;;;;;;;3.80;98.10;;;;;;5046424;28;20008;-71
2022/01/16 09:03:03;;;;;;;;;;;3.80;98.10;;;;;;5029405;28;19917;-71
2022/01/16 09:05:28;;;;;;;;;;;3.80;98.20;;;;;;5047522;28;20388;-71
2022/01/16 09:07:54;;;;;;;;;;;3.80;98.10;;;;;;5047597;28;20669;-71
2022/01/16 09:10:19;;;;;;;;;;;3.80;98.10;;;;;;5047916;28;19917;-71
2022/01/16 09:12:45;;;;;;;;;;;3.80;98.40;;;;;;5064584;28;19917;-71
2022/01/16 09:15:11;;;;;;;;;;;3.80;98.10;;;;;;5047396;28;19952;-69
2022/01/16 09:17:37;;;;;;;;;;;3.80;98.20;;;;;;5044680;28;20667;-69
2022/01/16 09:20:05;;;;;;;;;;;3.80;98.10;;;;;;5047414;28;19917;-69
2022/01/16 09:22:30;;;;;;;;;;;3.80;98.10;;;;;;5046781;28;19996;-69
2022/01/16 09:24:56;;;;;;;;;;;3.80;98.10;;;;;;5032450;28;20438;-69
2022/01/16 09:27:21;;;;;;;;;;;3.90;98.10;;;;;;5020946;28;20331;-69
2022/01/16 09:29:47;;;;;;;;;;;3.90;98.10;;;;;;5051795;28;19919;-69
2022/01/16 09:32:13;;;;;;;;;;;3.90;98.10;;;;;;5049168;28;19916;-69
2022/01/16 09:34:39;;;;;;;;;;;3.90;98.10;;;;;;5044482;28;19913;-69
2022/01/16 09:37:08;;;;;;;;;;;3.90;98.10;;;;;;5049196;28;19916;-69
2022/01/16 09:39:37;;;;;;;;;;;3.90;98.10;;;;;;5055634;28;19912;-69
2022/01/16 09:42:03;;;;;;;;;;;3.90;98.10;;;;;;5049401;28;19916;-69
2022/01/16 09:44:29;;;;;;;;;;;3.90;98.10;;;;;;5050535;28;19908;-69
2022/01/16 09:46:55;;;;;;;;;;;3.90;98.20;;;;;;5045797;28;20541;-68
2022/01/16 09:49:20;;;;;;;;;;;3.90;98.10;;;;;;5051238;28;19909;-69
2022/01/16 09:51:46;;;;;;;;;;;3.90;98.10;;;;;;5048334;28;19919;-69
2022/01/16 09:54:12;;;;;;;;;;;3.90;98.20;;;;;;5048943;28;19970;-68
2022/01/16 09:56:37;;;;;;;;;;;3.90;98.10;;;;;;5054679;28;20020;-69
2022/01/16 09:59:03;;;;;;;;;;;4.00;98.10;;;;;;5047778;28;20007;-69
2022/01/16 10:01:28;;;;;;;;;;;4.00;98.10;;;;;;5048825;28;19908;-69
2022/01/16 10:03:54;;;;;;;;;;;4.00;98.10;;;;;;5047454;28;20269;-69
2022/01/16 10:06:21;;;;;;;;;;;4.00;98.10;;;;;;5049413;28;20003;-68
2022/01/16 10:08:48;;;;;;;;;;;4.00;98.10;;;;;;5048242;28;19921;-69
2022/01/16 10:11:21;;;;;;;;;;;4.00;98.10;;;;;;5046681;28;19959;-68
2022/01/16 10:13:54;;;;;;;;;;;4.00;98.10;;;;;;5047633;28;19928;-68
2022/01/16 10:16:24;;;;;;;;;;;4.00;98.10;;;;;;5054265;28;19909;-69
2022/01/16 10:18:49;;;;;;;;;;;4.00;98.10;;;;;;5045740;28;19974;-69
2022/01/16 10:21:29;;;;;;;;;;;4.00;98.00;;;;;;5054873;28;20378;-69
2022/01/16 10:23:55;;;;;;;;;;;4.10;98.00;;;;;;5045340;28;19921;-68
2022/01/16 10:26:21;;;;;;;;;;;4.10;98.00;;;;;;5046730;28;20366;-69
2022/01/16 10:28:47;;;;;;;;;;;4.10;98.00;;;;;;5047060;28;19996;-69
2022/01/16 10:31:20;;;;;;;;;;;4.10;98.00;;;;;;5052142;28;20347;-69
2022/01/16 10:33:45;;;;;;;;;;;4.20;98.00;;;;;;5050374;28;19917;-69
2022/01/16 10:36:11;;;;;;;;;;;4.20;98.10;;;;;;5048249;28;19931;-69
2022/01/16 10:38:36;;;;;;;;;;;4.20;98.00;;;;;;5047044;28;19923;-68
2022/01/16 10:41:02;;;;;;;;;;;4.20;98.00;;;;;;5048406;28;19915;-68
2022/01/16 10:43:37;;;;;;;;;;;4.20;98.00;;;;;;5040359;28;19920;-69
2022/01/16 10:46:02;;;;;;;;;;;4.30;98.00;;;;;;5044774;28;19917;-69
2022/01/16 10:48:28;;;;;;;;;;;4.30;97.90;;;;;;5048494;28;19939;-68
2022/01/16 10:50:54;;;;;;;;;;;4.30;97.90;;;;;;5044697;28;19921;-69
2022/01/16 10:53:29;;;;;;;;;;;4.30;97.90;;;;;;5042174;28;19920;-69
2022/01/16 10:55:55;;;;;;;;;;;4.30;97.90;;;;;;5026515;28;19948;-69
2022/01/16 10:58:21;;;;;;;;;;;4.30;97.90;;;;;;5045901;28;19909;-69
2022/01/16 11:00:56;;;;;;;;;;;4.30;97.90;;;;;;5045892;28;20407;-69
2022/01/16 11:03:23;;;;;;;;;;;4.30;97.90;;;;;;5050003;28;19917;-69
2022/01/16 11:05:50;;;;;;;;;;;4.30;97.90;;;;;;5045866;28;19913;-69
2022/01/16 11:08:17;;;;;;;;;;;4.40;97.90;;;;;;5049704;28;19925;-69
2022/01/16 11:10:47;;;;;;;;;;;4.40;98.00;;;;;;5047414;28;19913;-69
2022/01/16 11:13:14;;;;;;;;;;;4.40;97.90;;;;;;5047747;28;19909;-69
2022/01/16 11:15:50;;;;;;;;;;;4.40;97.90;;;;;;5044288;28;20606;-69
2022/01/16 11:18:16;;;;;;;;;;;4.50;98.00;;;;;;5048635;28;19935;-68
2022/01/16 11:20:51;;;;;;;;;;;4.50;97.90;;;;;;5044728;28;19928;-69
2022/01/16 11:23:29;;;;;;;;;;;4.50;97.90;;;;;;5044875;28;19920;-69
2022/01/16 11:25:55;;;;;;;;;;;4.50;97.80;;;;;;5042964;28;19917;-69
2022/01/16 11:28:22;;;;;;;;;;;4.50;97.90;;;;;;5045308;28;19909;-69
2022/01/16 11:30:51;;;;;;;;;;;4.50;97.80;;;;;;5044161;28;19924;-69
2022/01/16 11:33:17;;;;;;;;;;;4.60;97.80;;;;;;5045398;28;20382;-69
2022/01/16 11:35:54;;;;;;;;;;;4.60;97.70;;;;;;5048323;28;19925;-69
2022/01/16 11:38:21;;;;;;;;;;;4.60;97.80;;;;;;5047561;28;20004;-69
2022/01/16 11:40:48;;;;;;;;;;;4.60;97.70;;;;;;5030898;28;19924;-69
2022/01/16 11:43:15;;;;;;;;;;;4.60;97.80;;;;;;5046678;28;19921;-69
2022/01/16 11:45:46;;;;;;;;;;;4.60;97.80;;;;;;5046080;28;19917;-69
2022/01/16 11:48:12;;;;;;;;;;;4.60;97.80;;;;;;5049878;28;19944;-69
2022/01/16 11:50:38;;;;;;;;;;;4.60;97.80;;;;;;5053330;28;20394;-69
2022/01/16 11:53:03;;;;;;;;;;;4.70;97.80;;;;;;5048762;28;19948;-69
2022/01/16 11:55:35;;;;;;;;;;;4.70;97.70;;;;;;5032237;28;19916;-69
2022/01/16 11:58:04;;;;;;;;;;;4.70;97.70;;;;;;5048345;28;19920;-69
2022/01/16 12:00:45;;;;;;;;;;;4.80;97.70;;;;;;5052067;28;19909;-69
2022/01/16 12:03:29;;;;;;;;;;;4.80;97.60;;;;;;5030395;28;19917;-68
2022/01/16 12:06:15;;;;;;;;;;;4.80;97.60;;;;;;5048022;28;20350;-69
2022/01/16 12:08:45;;;;;;;;;;;4.80;97.60;;;;;;5045733;28;20039;-69
2022/01/16 12:11:30;;;;;;;;;;;4.80;97.60;;;;;;5046661;28;19913;-69
2022/01/16 12:13:57;;;;;;;;;;;4.90;97.50;;;;;;5041532;28;19924;-69
2022/01/16 12:16:32;;;;;;;;;;;4.90;97.60;;;;;;5049311;28;19917;-69
2022/01/16 12:19:16;;;;;;;;;;;4.90;97.50;;;;;;5043374;28;20007;-68
2022/01/16 12:21:51;;;;;;;;;;;5.00;97.50;;;;;;5049266;28;20373;-69
2022/01/16 12:24:37;;;;;;;;;;;5.00;97.40;;;;;;5046325;28;19923;-69
2022/01/16 12:27:21;;;;;;;;;;;5.00;97.50;;;;;;5048159;28;19916;-69
2022/01/16 12:30:05;;;;;;;;;;;5.00;97.50;;;;;;5046873;28;20038;-69
2022/01/16 12:32:49;;;;;;;;;;;5.00;97.60;;;;;;5054225;28;19996;-68
2022/01/16 12:35:15;;;;;;;;;;;5.00;97.60;;;;;;5047366;28;19959;-69
2022/01/16 12:37:41;;;;;;;;;;;5.00;97.60;;;;;;5052158;28;19921;-69
2022/01/16 12:40:08;;;;;;;;;;;5.10;97.60;;;;;;5030188;28;19924;-69
2022/01/16 12:42:33;;;;;;;;;;;5.10;97.60;;;;;;5067227;28;19916;-69
2022/01/16 12:44:59;;;;;;;;;;;5.00;97.60;;;;;;5032879;28;19923;-69
2022/01/16 12:47:25;;;;;;;;;;;5.10;97.60;;;;;;5052472;28;19916;-69
2022/01/16 12:49:52;;;;;;;;;;;5.10;97.60;;;;;;5029820;28;19917;-69
2022/01/16 12:52:18;;;;;;;;;;;5.00;97.60;;;;;;5050737;28;19912;-69
2022/01/16 12:54:48;;;;;;;;;;;5.10;97.70;;;;;;5053038;28;19912;-68
2022/01/16 12:57:24;;;;;;;;;;;5.00;97.80;;;;;;5034976;28;20046;-69
2022/01/16 12:59:50;;;;;;;;;;;5.00;97.90;;;;;;5047466;28;20007;-69
2022/01/16 13:02:15;;;;;;;;;;;5.00;97.80;;;;;;5050708;28;20050;-68
2022/01/16 13:04:43;;;;;;;;;;;5.00;97.90;;;;;;5045104;28;19920;-69
2022/01/16 13:07:08;;;;;;;;;;;5.00;98.00;;;;;;5047479;28;19917;-68
2022/01/16 13:09:35;;;;;;;;;;;5.00;97.90;;;;;;5053425;28;19921;-69
2022/01/16 13:12:01;;;;;;;;;;;5.00;98.00;;;;;;5050789;28;19917;-69
2022/01/16 13:14:28;;;;;;;;;;;5.00;98.00;;;;;;5053993;28;20453;-69
2022/01/16 13:16:59;;;;;;;;;;;5.00;98.00;;;;;;5047838;28;19909;-69
2022/01/16 13:19:25;;;;;;;;;;;5.00;98.00;;;;;;5048986;28;20680;-69
2022/01/16 13:22:11;;;;;;;;;;;4.90;98.00;;;;;;5045598;28;20471;-69
2022/01/16 13:24:36;;;;;;;;;;;4.90;98.00;;;;;;5033352;28;19917;-69
2022/01/16 13:27:04;;;;;;;;;;;4.90;98.00;;;;;;5048446;28;20430;-69
2022/01/16 13:29:29;;;;;;;;;;;4.90;98.00;;;;;;5050738;28;19946;-69
2022/01/16 13:31:55;;;;;;;;;;;4.90;98.00;;;;;;5044585;28;19967;-69
2022/01/16 13:34:34;;;;;;;;;;;4.90;98.00;;;;;;5049779;28;19909;-69
2022/01/16 13:37:00;;;;;;;;;;;4.90;98.00;;;;;;5042113;28;19956;-69
2022/01/16 13:39:55;;;;;;;;;;;4.90;98.10;;;;;;5031183;28;20350;-69
2022/01/16 13:42:38;;;;;;;;;;;4.90;98.10;;;;;;5030849;28;19917;-69
2022/01/16 13:45:22;;;;;;;;;;;4.90;98.00;;;;;;5056799;28;19915;-69
2022/01/16 13:48:11;;;;;;;;;;;4.90;98.10;;;;;;5042484;28;19921;-69
2022/01/16 13:50:44;;;;;;;;;;;4.90;98.10;;;;;;5036742;28;19924;-69
2022/01/16 13:53:12;;;;;;;;;;;4.90;98.00;;;;;;5043994;28;19917;-69
2022/01/16 13:55:47;;;;;;;;;;;4.90;98.10;;;;;;5050933;28;19912;-69
2022/01/16 13:58:13;;;;;;;;;;;4.90;98.10;;;;;;5045936;28;20310;-69
2022/01/16 14:00:39;;;;;;;;;;;4.90;98.10;;;;;;5046274;28;19910;-69
2022/01/16 14:03:09;;;;;;;;;;;4.90;98.10;;;;;;5047116;28;19917;-69
2022/01/16 14:05:39;;;;;;;;;;;4.90;98.10;;;;;;5050049;28;20031;-69
2022/01/16 14:08:16;;;;;;;;;;;4.90;98.00;;;;;;5046886;28;19917;-69
2022/01/16 14:10:42;;;;;;;;;;;4.90;98.00;;;;;;5047971;28;19909;-69
2022/01/16 14:13:10;;;;;;;;;;;4.90;98.00;;;;;;5046726;28;19920;-69
2022/01/16 14:15:36;;;;;;;;;;;4.90;98.00;;;;;;5050957;28;19979;-69
2022/01/16 14:18:07;;;;;;;;;;;4.90;98.00;;;;;;5048166;28;19912;-69
2022/01/16 14:20:51;;;;;;;;;;;4.90;98.10;;;;;;5049324;28;20688;-69
2022/01/16 14:23:16;;;;;;;;;;;4.90;98.00;;;;;;5042770;28;19924;-69
2022/01/16 14:25:42;;;;;;;;;;;4.90;98.00;;;;;;5050144;28;20274;-69
2022/01/16 14:28:07;;;;;;;;;;;4.90;98.00;;;;;;5046856;28;19956;-69
2022/01/16 14:30:33;;;;;;;;;;;4.90;98.10;;;;;;5050785;28;19955;-69
2022/01/16 14:32:58;;;;;;;;;;;4.90;98.10;;;;;;5045179;28;19917;-69
2022/01/16 14:35:24;;;;;;;;;;;4.90;98.30;;;;;;5048493;28;19934;-69
2022/01/16 14:37:49;;;;;;;;;;;4.90;98.00;;;;;;5047720;28;19909;-69
2022/01/16 14:40:15;;;;;;;;;;;4.90;98.00;;;;;;5049205;28;20025;-69
2022/01/16 14:42:42;;;;;;;;;;;4.90;98.10;;;;;;5050308;28;19912;-69
2022/01/16 14:45:08;;;;;;;;;;;4.90;98.10;;;;;;5048464;28;19920;-69
2022/01/16 14:47:34;;;;;;;;;;;4.90;98.10;;;;;;5045844;28;20047;-69
2022/01/16 14:50:00;;;;;;;;;;;4.90;98.10;;;;;;5050522;28;19917;-69
2022/01/16 14:52:26;;;;;;;;;;;4.90;98.10;;;;;;5031882;28;19917;-69
2022/01/16 14:54:52;;;;;;;;;;;4.90;98.10;;;;;;5042829;28;20025;-69
2022/01/16 14:57:18;;;;;;;;;;;4.90;98.10;;;;;;5053354;28;19908;-69
2022/01/16 14:59:44;;;;;;;;;;;4.80;98.10;;;;;;5046628;28;19942;-69
2022/01/16 15:02:09;;;;;;;;;;;4.90;98.10;;;;;;5044546;28;20399;-69
2022/01/16 15:04:35;;;;;;;;;;;4.90;98.10;;;;;;5045399;28;20485;-69
2022/01/16 15:07:00;;;;;;;;;;;4.90;98.10;;;;;;5032646;28;19905;-69
2022/01/16 15:09:26;;;;;;;;;;;4.80;98.10;;;;;;5044139;28;19919;-69
2022/01/16 15:11:52;;;;;;;;;;;4.90;98.10;;;;;;5049682;28;19987;-69